createdAt,value
2023-01-27T00:01:05.014Z,8.77
2023-01-27T00:03:31.837Z,8.40
2023-01-27T00:06:01.417Z,8.93
2023-01-27T00:08:29.709Z,9.10
2023-01-27T00:11:13.790Z,9.17
2023-01-27T00:13:40.549Z,7.90
2023-01-27T00:16:07.539Z,8.88
2023-01-27T00:18:34.206Z,8.63
2023-01-27T00:21:14.787Z,7.80
2023-01-27T00:23:59.715Z,9.33
2023-01-27T00:26:26.425Z,8.80
2023-01-27T00:28:53.190Z,7.60
2023-01-27T00:31:38.970Z,7.80
2023-01-27T00:34:09.594Z,8.43
2023-01-27T00:36:41.574Z,7.83
2023-01-27T00:39:10.041Z,8.03
2023-01-27T00:41:37.226Z,8.10
2023-01-27T00:44:08.848Z,7.67
2023-01-27T00:46:35.662Z,8.87
2023-01-27T00:49:06.048Z,7.83
2023-01-27T00:51:32.743Z,8.63
2023-01-27T00:53:59.523Z,7.80
2023-01-27T00:56:31.342Z,7.95
2023-01-27T00:58:58.197Z,7.53
2023-01-27T01:01:25.048Z,8.20
2023-01-27T01:03:51.818Z,7.70
2023-01-27T01:06:20.443Z,7.53
2023-01-27T01:08:47.309Z,7.50
2023-01-27T01:11:17.096Z,8.43
2023-01-27T01:13:45.408Z,8.37
2023-01-27T01:16:14.270Z,8.27
2023-01-27T01:18:41.979Z,8.67
2023-01-27T01:21:08.887Z,8.17
2023-01-27T01:23:39.247Z,7.63
2023-01-27T01:26:06.079Z,7.10
2023-01-27T01:28:33.632Z,7.88
2023-01-27T01:31:08.385Z,7.97
2023-01-27T01:33:36.495Z,7.20
2023-01-27T01:38:39.091Z,7.90
2023-01-27T01:41:07.254Z,8.23
2023-01-27T01:43:35.318Z,7.50
2023-01-27T01:46:03.088Z,7.65
2023-01-27T01:48:42.700Z,7.73
2023-01-27T01:51:13.830Z,7.20
2023-01-27T01:53:51.081Z,6.67
2023-01-27T01:56:23.539Z,7.30
2023-01-27T01:58:51.306Z,6.87
2023-01-27T02:01:19.409Z,8.00
2023-01-27T02:03:51.414Z,7.50
2023-01-27T02:06:18.450Z,6.67
2023-01-27T02:08:48.562Z,7.38
2023-01-27T02:11:17.833Z,8.07
2023-01-27T02:13:45.328Z,8.10
2023-01-27T02:16:14.175Z,8.07
2023-01-27T02:18:41.969Z,7.70
2023-01-27T02:21:09.203Z,7.97
2023-01-27T02:23:38.782Z,7.67
2023-01-27T02:26:12.878Z,7.37
2023-01-27T02:28:39.565Z,8.10
2023-01-27T02:31:06.420Z,8.48
2023-01-27T02:33:33.682Z,7.77
2023-01-27T02:36:09.046Z,7.87
2023-01-27T02:38:48.423Z,8.50
2023-01-27T02:41:29.998Z,9.30
2023-01-27T02:43:57.115Z,8.20
2023-01-27T02:46:24.274Z,9.23
2023-01-27T02:48:51.031Z,8.80
2023-01-27T02:51:18.157Z,8.20
2023-01-27T02:53:46.265Z,8.83
2023-01-27T02:56:14.860Z,8.80
2023-01-27T02:58:41.673Z,8.83
2023-01-27T03:01:09.919Z,9.07
2023-01-27T03:03:36.670Z,8.53
2023-01-27T03:06:03.896Z,8.93
2023-01-27T03:08:30.536Z,9.38
2023-01-27T03:10:57.349Z,8.87
2023-01-27T03:13:25.224Z,8.73
2023-01-27T03:16:13.388Z,8.45
2023-01-27T03:18:38.827Z,8.30
2023-01-27T03:21:07.350Z,8.33
2023-01-27T03:23:34.486Z,9.80
2023-01-27T03:26:03.034Z,9.90
2023-01-27T03:28:29.935Z,8.73
2023-01-27T03:31:01.712Z,8.27
2023-01-27T03:33:28.656Z,7.87
2023-01-27T03:36:13.894Z,7.88
2023-01-27T03:38:59.339Z,7.73
2023-01-27T03:41:44.540Z,7.20
2023-01-27T03:46:38.160Z,7.13
2023-01-27T03:49:04.853Z,7.23
2023-01-27T03:51:31.509Z,8.27
2023-01-27T03:54:02.976Z,8.50
2023-01-27T03:56:29.945Z,7.63
2023-01-27T03:58:57.890Z,8.00
2023-01-27T04:01:25.256Z,7.60
2023-01-27T04:04:10.600Z,8.73
2023-01-27T04:06:56.606Z,7.40
2023-01-27T04:09:35.731Z,7.47
2023-01-27T04:12:06.891Z,7.45
2023-01-27T04:14:38.040Z,7.83
2023-01-27T04:17:13.866Z,8.65
2023-01-27T04:19:41.139Z,7.10
2023-01-27T04:22:09.728Z,6.60
2023-01-27T04:24:36.397Z,7.73
2023-01-27T04:27:10.040Z,6.67
2023-01-27T04:29:41.137Z,6.70
2023-01-27T04:32:10.288Z,6.97
2023-01-27T04:34:38.141Z,6.90
2023-01-27T04:37:07.082Z,6.53
2023-01-27T04:39:34.528Z,5.20
2023-01-27T04:42:01.578Z,6.00
2023-01-27T04:44:28.507Z,5.70
2023-01-27T04:46:55.266Z,5.97
2023-01-27T04:49:22.645Z,5.93
2023-01-27T04:51:50.142Z,5.50
2023-01-27T04:54:17.239Z,5.67
2023-01-27T04:56:59.889Z,5.67
2023-01-27T04:59:27.118Z,6.00
2023-01-27T05:01:54.412Z,5.13
2023-01-27T05:04:21.642Z,5.13
2023-01-27T05:06:48.376Z,5.60
2023-01-27T05:09:14.998Z,5.43
2023-01-27T05:11:41.942Z,5.70
2023-01-27T05:16:39.723Z,5.97
2023-01-27T05:19:07.411Z,5.63
2023-01-27T05:21:34.119Z,5.40
2023-01-27T05:24:02.338Z,5.10
2023-01-27T05:26:29.135Z,5.85
2023-01-27T05:28:58.465Z,5.50
2023-01-27T05:31:32.036Z,5.60
2023-01-27T05:34:01.619Z,5.70
2023-01-27T05:36:29.543Z,5.45
2023-01-27T05:38:58.688Z,5.60
2023-01-27T05:41:25.681Z,6.50
2023-01-27T05:43:56.679Z,5.30
2023-01-27T05:46:26.732Z,5.18
2023-01-27T05:48:56.033Z,5.13
2023-01-27T05:51:24.730Z,5.38
2023-01-27T05:53:52.588Z,5.17
2023-01-27T05:56:22.105Z,5.20
2023-01-27T05:58:53.343Z,5.30
2023-01-27T06:01:25.998Z,5.40
2023-01-27T06:03:53.017Z,5.40
2023-01-27T06:06:22.496Z,5.67
2023-01-27T06:08:50.350Z,6.23
2023-01-27T06:11:20.125Z,6.17
2023-01-27T06:13:47.969Z,5.57
2023-01-27T06:16:20.391Z,5.63
2023-01-27T06:18:48.430Z,5.93
2023-01-27T06:21:16.903Z,5.68
2023-01-27T06:23:47.315Z,5.37
2023-01-27T06:26:17.204Z,5.57
2023-01-27T06:28:44.259Z,5.87
2023-01-27T06:31:14.098Z,6.07
2023-01-27T06:33:41.113Z,6.33
2023-01-27T06:36:14.021Z,5.90
2023-01-27T06:38:41.135Z,5.77
2023-01-27T06:41:08.411Z,6.87
2023-01-27T06:43:41.134Z,6.40
2023-01-27T06:46:10.992Z,6.63
2023-01-27T06:48:38.422Z,7.47
2023-01-27T06:51:05.322Z,7.70
2023-01-27T06:53:32.972Z,6.90
2023-01-27T06:56:01.385Z,7.53
2023-01-27T06:58:28.916Z,6.83
2023-01-27T07:00:56.077Z,6.53
2023-01-27T07:03:23.073Z,6.80
2023-01-27T07:05:50.142Z,6.97
2023-01-27T07:08:17.457Z,6.80
2023-01-27T07:10:44.370Z,7.37
2023-01-27T07:13:13.927Z,7.40
2023-01-27T07:15:41.249Z,6.83
2023-01-27T07:18:08.158Z,7.30
2023-01-27T07:20:34.974Z,7.63
2023-01-27T07:23:05.280Z,6.97
2023-01-27T07:25:34.690Z,7.43
2023-01-27T07:28:02.671Z,6.63
2023-01-27T07:30:29.557Z,6.83
2023-01-27T07:32:56.393Z,6.93
2023-01-27T07:35:23.599Z,8.18
2023-01-27T07:37:50.476Z,7.53
2023-01-27T07:40:18.416Z,7.23
2023-01-27T07:42:45.077Z,8.47
2023-01-27T07:47:38.573Z,7.37
2023-01-27T07:50:05.889Z,7.03
2023-01-27T07:52:32.533Z,7.10
2023-01-27T07:54:59.268Z,7.55
2023-01-27T07:57:25.935Z,7.45
2023-01-27T07:59:56.860Z,6.80
2023-01-27T08:02:24.391Z,7.35
2023-01-27T08:04:53.548Z,7.13
2023-01-27T08:07:21.542Z,7.03
2023-01-27T08:09:48.637Z,7.90
2023-01-27T08:12:15.388Z,6.93
2023-01-27T08:14:42.096Z,7.77
2023-01-27T08:17:08.940Z,7.82
2023-01-27T08:19:35.724Z,7.43
2023-01-27T08:22:02.404Z,7.73
2023-01-27T08:24:29.193Z,7.47
2023-01-27T08:26:56.431Z,8.05
2023-01-27T08:29:23.271Z,6.60
2023-01-27T08:31:49.954Z,7.68
2023-01-27T08:34:17.242Z,7.60
2023-01-27T08:36:43.896Z,7.63
2023-01-27T08:39:11.237Z,6.65
2023-01-27T08:41:38.072Z,6.87
2023-01-27T08:44:04.893Z,7.35
2023-01-27T08:46:31.583Z,7.65
2023-01-27T08:48:58.269Z,7.75
2023-01-27T08:51:24.903Z,7.03
2023-01-27T08:53:51.675Z,6.78
2023-01-27T08:56:18.555Z,6.43
2023-01-27T08:58:47.623Z,7.68
2023-01-27T09:01:16.254Z,7.95
2023-01-27T09:03:43.471Z,6.93
2023-01-27T09:08:39.629Z,6.25
2023-01-27T09:11:13.999Z,7.07
2023-01-27T09:13:41.005Z,6.75
2023-01-27T09:16:08.105Z,7.32
2023-01-27T09:18:38.439Z,7.07
2023-01-27T09:21:09.202Z,6.88
2023-01-27T09:23:35.865Z,6.50
2023-01-27T09:26:02.528Z,5.90
2023-01-27T09:28:29.304Z,7.00
2023-01-27T09:31:00.289Z,6.07
2023-01-27T09:33:27.699Z,6.53
2023-01-27T09:36:05.558Z,7.10
2023-01-27T09:38:36.392Z,6.38
2023-01-27T09:41:13.084Z,6.05
2023-01-27T09:43:57.910Z,5.78
2023-01-27T09:46:39.538Z,6.00
2023-01-27T09:49:14.076Z,5.97
2023-01-27T09:51:52.032Z,5.55
2023-01-27T09:54:43.660Z,6.47
2023-01-27T09:57:13.097Z,6.10
2023-01-27T09:59:48.297Z,5.65
2023-01-27T10:02:15.288Z,5.57
2023-01-27T10:04:54.149Z,5.68
2023-01-27T10:07:48.894Z,5.20
2023-01-27T10:10:42.230Z,5.30
2023-01-27T10:13:14.082Z,5.57
2023-01-27T10:16:14.050Z,6.05
2023-01-27T10:19:14.178Z,4.43
2023-01-27T10:21:48.983Z,4.78
2023-01-27T10:24:32.855Z,4.65
2023-01-27T10:27:14.065Z,5.38
2023-01-27T10:30:05.836Z,5.28
2023-01-27T10:33:04.293Z,4.25
2023-01-27T10:35:45.934Z,4.68
2023-01-27T10:38:14.130Z,5.15
2023-01-27T10:40:50.489Z,4.78
2023-01-27T10:43:36.717Z,5.13
2023-01-27T10:46:14.033Z,4.93
2023-01-27T10:49:10.338Z,5.32
2023-01-27T10:51:43.709Z,5.10
2023-01-27T10:54:14.159Z,4.30
2023-01-27T10:56:49.781Z,4.97
2023-01-27T10:59:33.238Z,5.43
2023-01-27T11:02:13.171Z,4.63
2023-01-27T11:04:44.228Z,5.10
2023-01-27T11:07:13.110Z,4.90
2023-01-27T11:09:49.215Z,5.15
2023-01-27T11:12:16.436Z,5.43
2023-01-27T11:14:51.842Z,4.97
2023-01-27T11:17:59.852Z,5.43
2023-01-27T11:20:35.385Z,5.55
2023-01-27T11:25:52.987Z,4.90
2023-01-27T11:28:25.440Z,4.65
2023-01-27T11:33:58.604Z,3.53
2023-01-27T11:36:26.581Z,3.65
2023-01-27T11:39:01.763Z,4.38
2023-01-27T11:41:28.614Z,3.85
2023-01-27T11:43:55.331Z,3.95
2023-01-27T11:46:24.425Z,4.03
2023-01-27T11:48:57.796Z,5.03
2023-01-27T11:51:32.043Z,3.88
2023-01-27T11:54:14.234Z,4.35
2023-01-27T11:56:44.276Z,4.57
2023-01-27T11:59:14.133Z,3.97
2023-01-27T12:01:50.980Z,4.43
2023-01-27T12:04:39.260Z,4.22
2023-01-27T12:07:14.102Z,4.03
2023-01-27T12:09:42.197Z,4.65
2023-01-27T12:12:15.111Z,4.18
2023-01-27T12:14:54.214Z,4.05
2023-01-27T12:17:44.022Z,3.50
2023-01-27T12:20:13.540Z,3.67
2023-01-27T12:22:44.592Z,3.58
2023-01-27T12:25:14.193Z,3.65
2023-01-27T12:27:48.088Z,4.45
2023-01-27T12:30:40.841Z,3.83
2023-01-27T12:33:14.091Z,3.38
2023-01-27T12:35:40.880Z,3.65
2023-01-27T12:38:14.080Z,4.22
2023-01-27T12:40:45.030Z,3.80
2023-01-27T12:43:14.130Z,3.55
2023-01-27T12:45:43.502Z,3.13
2023-01-27T12:50:53.213Z,3.35
2023-01-27T12:53:30.494Z,3.50
2023-01-27T12:56:14.198Z,3.20
2023-01-27T12:58:55.554Z,2.80
2023-01-27T13:01:34.910Z,3.00
2023-01-27T13:04:07.214Z,3.28
2023-01-27T13:06:42.064Z,2.38
2023-01-27T13:09:13.176Z,2.40
2023-01-27T13:11:41.099Z,2.70
2023-01-27T13:14:14.254Z,2.58
2023-01-27T13:16:41.050Z,2.30
2023-01-27T13:19:13.186Z,2.65
2023-01-27T13:21:39.933Z,2.60
2023-01-27T13:24:14.207Z,2.70
2023-01-27T13:26:41.680Z,2.38
2023-01-27T13:29:14.107Z,2.22
2023-01-27T13:31:57.114Z,2.40
2023-01-27T13:34:34.211Z,2.25
2023-01-27T13:37:14.153Z,3.08
2023-01-27T13:39:43.838Z,2.90
2023-01-27T13:42:15.183Z,2.58
2023-01-27T13:44:57.312Z,2.47
2023-01-27T13:47:28.327Z,2.50
2023-01-27T13:50:02.622Z,2.88
2023-01-27T13:52:29.295Z,2.53
2023-01-27T13:54:56.009Z,2.80
2023-01-27T13:57:37.960Z,2.97
2023-01-27T14:00:14.437Z,3.22
2023-01-27T14:03:06.687Z,2.78
2023-01-27T14:06:00.932Z,3.15
2023-01-27T14:08:42.024Z,3.22
2023-01-27T14:11:13.242Z,2.92
2023-01-27T14:13:42.731Z,3.10
2023-01-27T14:16:14.143Z,2.80
2023-01-27T14:18:44.930Z,3.08
2023-01-27T14:21:13.211Z,2.78
2023-01-27T14:24:10.920Z,3.20
2023-01-27T14:29:54.277Z,3.53
2023-01-27T14:32:41.939Z,3.10
2023-01-27T14:35:15.243Z,3.08
2023-01-27T14:38:14.537Z,3.55
2023-01-27T14:41:06.299Z,2.70
2023-01-27T14:43:58.285Z,3.95
2023-01-27T14:46:44.165Z,3.53
2023-01-27T14:49:14.633Z,3.35
2023-01-27T14:51:52.735Z,3.42
2023-01-27T14:54:31.546Z,4.10
2023-01-27T14:57:14.226Z,3.55
2023-01-27T15:00:15.197Z,3.88
2023-01-27T15:02:51.896Z,3.92
2023-01-27T15:05:23.923Z,3.28
2023-01-27T15:08:14.219Z,3.58
2023-01-27T15:11:14.230Z,3.25
2023-01-27T15:14:14.951Z,4.53
2023-01-27T15:17:14.180Z,3.80
2023-01-27T15:19:50.037Z,3.50
2023-01-27T15:22:31.516Z,4.00
2023-01-27T15:25:18.336Z,3.85
2023-01-27T15:27:47.902Z,3.70
2023-01-27T15:31:01.892Z,4.20
2023-01-27T15:33:50.477Z,4.05
2023-01-27T15:36:34.934Z,3.47
2023-01-27T15:41:53.831Z,3.97
2023-01-27T15:44:39.009Z,4.47
2023-01-27T15:47:11.621Z,4.30
2023-01-27T15:49:44.520Z,4.30
2023-01-27T15:52:14.227Z,5.45
2023-01-27T15:54:42.810Z,4.88
2023-01-27T15:57:14.310Z,4.25
2023-01-27T15:59:58.346Z,4.38
2023-01-27T16:02:29.874Z,3.78
2023-01-27T16:05:14.653Z,4.88
2023-01-27T16:07:42.164Z,4.30
2023-01-27T16:10:14.296Z,3.72
2023-01-27T16:12:47.560Z,3.42
2023-01-27T16:15:23.339Z,3.33
2023-01-27T16:18:09.409Z,3.55
2023-01-27T16:20:42.181Z,4.18
2023-01-27T16:23:14.652Z,3.90
2023-01-27T16:25:45.817Z,3.53
2023-01-27T16:28:14.538Z,4.25
2023-01-27T16:31:00.683Z,3.33
2023-01-27T16:33:48.046Z,3.10
2023-01-27T16:36:20.731Z,2.95
2023-01-27T16:38:48.882Z,3.35
2023-01-27T16:41:22.089Z,3.35
2023-01-27T16:43:53.554Z,3.30
2023-01-27T16:46:43.157Z,3.42
2023-01-27T16:49:14.292Z,3.47
2023-01-27T16:51:43.118Z,3.42
2023-01-27T16:54:17.637Z,3.30
2023-01-27T16:56:50.761Z,3.72
2023-01-27T16:59:30.897Z,3.30
2023-01-27T17:02:03.530Z,3.50
2023-01-27T17:04:32.142Z,3.20
2023-01-27T17:07:16.361Z,3.42
2023-01-27T17:09:51.409Z,3.45
2023-01-27T17:12:27.378Z,3.78
2023-01-27T17:14:54.307Z,3.00
2023-01-27T17:17:23.916Z,3.47
2023-01-27T17:20:04.727Z,3.25
2023-01-27T17:22:39.366Z,3.90
2023-01-27T17:25:15.015Z,3.38
2023-01-27T17:27:45.495Z,3.35
2023-01-27T17:30:14.337Z,3.80
2023-01-27T17:32:48.633Z,3.70
2023-01-27T17:35:25.146Z,3.58
2023-01-27T17:37:52.997Z,3.15
2023-01-27T17:40:24.553Z,4.03
2023-01-27T17:42:51.437Z,3.28
2023-01-27T17:45:32.212Z,3.55
2023-01-27T17:48:00.439Z,3.13
2023-01-27T17:50:40.464Z,3.55
2023-01-27T17:55:40.037Z,3.60
2023-01-27T17:58:14.277Z,4.18
2023-01-27T18:00:44.169Z,3.30
2023-01-27T18:03:14.583Z,3.65
2023-01-27T18:05:44.738Z,3.70
2023-01-27T18:08:11.903Z,3.38
2023-01-27T18:10:46.540Z,2.80
2023-01-27T18:13:15.630Z,3.38
2023-01-27T18:15:58.511Z,4.00
2023-01-27T18:18:30.889Z,3.55
2023-01-27T18:21:01.246Z,3.38
2023-01-27T18:23:53.271Z,3.33
2023-01-27T18:26:26.285Z,3.40
2023-01-27T18:28:59.191Z,3.13
2023-01-27T18:31:30.607Z,3.13
2023-01-27T18:34:06.789Z,3.58
2023-01-27T18:36:55.630Z,3.25
2023-01-27T18:39:42.633Z,3.65
2023-01-27T18:42:15.203Z,3.08
2023-01-27T18:44:42.439Z,3.40
2023-01-27T18:47:15.412Z,3.05
2023-01-27T18:49:42.278Z,3.50
2023-01-27T18:52:14.352Z,3.75
2023-01-27T18:54:41.511Z,3.35
2023-01-27T18:57:11.283Z,3.83
2023-01-27T18:59:38.068Z,4.10
2023-01-27T19:04:39.328Z,3.33
2023-01-27T19:09:38.716Z,4.00
2023-01-27T19:12:06.547Z,4.13
2023-01-27T19:14:35.235Z,4.30
2023-01-27T19:17:02.039Z,3.95
2023-01-27T19:19:29.160Z,3.30
2023-01-27T19:21:55.943Z,4.88
2023-01-27T19:24:22.973Z,3.78
2023-01-27T19:26:49.932Z,4.30
2023-01-27T19:29:16.603Z,3.65
2023-01-27T19:31:43.455Z,4.03
2023-01-27T19:34:11.407Z,4.03
2023-01-27T19:36:43.566Z,3.83
2023-01-27T19:39:13.380Z,4.30
2023-01-27T19:41:41.079Z,4.03
2023-01-27T19:44:11.200Z,3.50
2023-01-27T19:46:39.956Z,4.20
2023-01-27T19:49:14.324Z,3.90
2023-01-27T19:51:41.011Z,3.72
2023-01-27T19:54:10.065Z,4.40
2023-01-27T19:56:40.442Z,4.38
2023-01-27T19:59:07.120Z,3.88
2023-01-27T20:01:33.873Z,3.70
2023-01-27T20:04:00.650Z,3.78
2023-01-27T20:06:29.614Z,4.22
2023-01-27T20:08:59.729Z,3.25
2023-01-27T20:11:36.608Z,4.20
2023-01-27T20:14:07.763Z,3.42
2023-01-27T20:16:34.519Z,3.65
2023-01-27T20:19:04.002Z,3.72
2023-01-27T20:21:36.547Z,3.67
2023-01-27T20:24:03.577Z,4.10
2023-01-27T20:26:33.565Z,3.90
2023-01-27T20:29:00.232Z,3.30
2023-01-27T20:31:27.349Z,3.72
2023-01-27T20:33:54.312Z,3.60
2023-01-27T20:36:23.579Z,3.85
2023-01-27T20:38:51.691Z,4.47
2023-01-27T20:41:23.924Z,4.05
2023-01-27T20:44:00.490Z,3.38
2023-01-27T20:46:27.907Z,3.78
2023-01-27T20:49:02.011Z,4.30
2023-01-27T20:51:28.937Z,3.90
2023-01-27T20:53:57.982Z,3.33
2023-01-27T20:56:24.754Z,3.60
2023-01-27T20:58:52.550Z,3.90
2023-01-27T21:01:22.440Z,3.90
2023-01-27T21:03:52.156Z,4.07
2023-01-27T21:06:22.635Z,3.90
2023-01-27T21:08:49.679Z,3.45
2023-01-27T21:11:18.821Z,3.47
2023-01-27T21:13:46.171Z,4.18
2023-01-27T21:16:14.455Z,4.20
2023-01-27T21:18:42.243Z,4.18
2023-01-27T21:21:13.829Z,4.60
2023-01-27T21:23:40.602Z,3.90
2023-01-27T21:26:11.815Z,3.90
2023-01-27T21:28:38.882Z,4.00
2023-01-27T21:31:10.897Z,3.75
2023-01-27T21:33:39.708Z,3.97
2023-01-27T21:36:10.501Z,3.65
2023-01-27T21:38:38.523Z,4.18
2023-01-27T21:41:14.357Z,3.92
2023-01-27T21:43:59.636Z,5.03
2023-01-27T21:46:26.329Z,4.43
2023-01-27T21:48:53.044Z,4.55
2023-01-27T21:51:19.712Z,3.95
2023-01-27T21:53:47.039Z,3.88
2023-01-27T21:56:14.692Z,4.25
2023-01-27T21:58:41.683Z,3.95
2023-01-27T22:01:11.071Z,4.30
2023-01-27T22:03:38.422Z,4.10
2023-01-27T22:06:11.339Z,3.45
2023-01-27T22:08:38.208Z,3.28
2023-01-27T22:11:12.448Z,2.90
2023-01-27T22:13:38.856Z,3.00
2023-01-27T22:16:06.291Z,3.40
2023-01-27T22:18:32.986Z,2.80
2023-01-27T22:21:02.884Z,3.25
2023-01-27T22:23:30.278Z,2.92
2023-01-27T22:25:57.036Z,2.55
2023-01-27T22:28:24.560Z,2.75
2023-01-27T22:30:51.379Z,2.53
2023-01-27T22:33:18.742Z,2.55
2023-01-27T22:35:45.466Z,2.40
2023-01-27T22:38:12.099Z,2.50
2023-01-27T22:40:38.825Z,2.90
2023-01-27T22:43:09.749Z,2.60
2023-01-27T22:45:40.449Z,2.53
2023-01-27T22:48:09.082Z,2.30
2023-01-27T22:50:36.710Z,2.50
2023-01-27T22:53:05.517Z,2.30
2023-01-27T22:55:32.700Z,2.53
2023-01-27T22:57:59.496Z,2.03
2023-01-27T23:00:26.218Z,2.58
2023-01-27T23:02:52.978Z,2.88
2023-01-27T23:05:22.934Z,2.55
2023-01-27T23:07:49.863Z,2.28
2023-01-27T23:10:17.053Z,2.70
2023-01-27T23:12:43.749Z,2.53
2023-01-27T23:15:10.816Z,2.25
2023-01-27T23:17:37.609Z,2.38
2023-01-27T23:20:04.809Z,2.22
2023-01-27T23:22:33.495Z,3.05
2023-01-27T23:25:00.164Z,2.42
2023-01-27T23:27:28.942Z,2.28
2023-01-27T23:29:55.631Z,3.17
2023-01-27T23:32:22.576Z,2.38
2023-01-27T23:34:50.489Z,2.28
2023-01-27T23:37:17.624Z,2.13
2023-01-27T23:39:48.786Z,2.58
2023-01-27T23:42:16.923Z,2.90
2023-01-27T23:44:43.785Z,2.40
2023-01-27T23:49:38.889Z,3.00
2023-01-27T23:52:05.810Z,2.65
2023-01-27T23:54:33.090Z,2.78
2023-01-27T23:57:00.473Z,2.88
2023-01-27T23:59:27.450Z,3.00
